Terminal Aerodrome Forecast
Issued by NWS

Home | Current Version | Previous Version | Text Only | Print | Product List | Glossary On
Versions: 1 2 3 4 5 6 7 8 9 10 11 12 13 14
000
FTUS45 KPSR 010500
TAFBLH
TAF
KBLH 010520Z 0106/0206 16005KT P6SM SKC
      TEMPO 0110/0114 VRB05KT
     FM011700 17010KT P6SM SKC
     FM020200 23008KT P6SM SKC=

USA.gov is the U.S. government's official web portal to all federal, state and local government web resources and services.